Athens, Wisconsin
Current Conditions -  °F | °C
As of 6:15 PM on Monday 24 Nov 2014 (Local Time) from KMDZ Reporting Station
Light Snow Light Snow  
Wind Chill: 10°   Ceiling: 1300
Heat Index: 24°   Visibility: 1.7mi
Dew Point: 21°   Wind: 18mph
Humidity: 88%   Direction: 320°NW
Pressure: 29.48"   Gusts: 26mph
Location:  45.03°N, 90.07°W
Report Text: KMDZ 250015Z AUTO 32016G23KT 1 3/4SM -SN BKN013 OVC020 M04/M06 A2948 RMK AO2 T10431060
Loading
Personal Weather Stations






























Interactive Weather Map New forecast layout! Learn more

10-Day Weather Forecast

Advertisements
Track Severe Weather on mobile